createdAt,value
2023-11-18T00:02:03.756Z,16.33
2023-11-18T00:05:08.632Z,16.39
2023-11-18T00:08:11.151Z,16.31
2023-11-18T00:11:14.614Z,16.42
2023-11-18T00:14:17.011Z,16.35
2023-11-18T00:17:21.403Z,16.43
2023-11-18T00:20:25.471Z,16.32
2023-11-18T00:23:27.992Z,16.15
2023-11-18T00:26:30.502Z,16.11
2023-11-18T00:29:35.284Z,16.19
2023-11-18T00:32:38.628Z,16.22
2023-11-18T00:35:41.202Z,16.11
2023-11-18T00:38:43.661Z,16.25
2023-11-18T00:41:46.135Z,16.00
2023-11-18T00:44:48.894Z,16.21
2023-11-18T00:47:51.340Z,16.10
2023-11-18T00:50:53.805Z,16.10
2023-11-18T00:53:56.248Z,16.12
2023-11-18T00:56:58.803Z,16.19
2023-11-18T01:00:01.252Z,16.07
2023-11-18T01:03:04.555Z,16.04
2023-11-18T01:06:07.666Z,15.99
2023-11-18T01:09:10.804Z,16.11
2023-11-18T01:12:13.264Z,16.05
2023-11-18T01:15:15.905Z,16.03
2023-11-18T01:18:19.109Z,15.99
2023-11-18T01:21:22.807Z,16.05
2023-11-18T01:24:25.531Z,16.03
2023-11-18T01:27:28.455Z,15.90
2023-11-18T01:30:31.414Z,15.86
2023-11-18T01:33:38.519Z,15.91
2023-11-18T01:36:40.939Z,16.03
2023-11-18T01:39:43.390Z,15.86
2023-11-18T01:42:47.793Z,15.88
2023-11-18T01:45:50.671Z,15.97
2023-11-18T01:48:53.674Z,15.91
2023-11-18T01:51:57.800Z,15.83
2023-11-18T01:55:00.773Z,15.91
2023-11-18T01:58:09.684Z,15.97
2023-11-18T02:01:12.335Z,15.83
2023-11-18T02:04:16.473Z,15.92
2023-11-18T02:07:19.188Z,15.79
2023-11-18T02:10:21.738Z,15.67
2023-11-18T02:13:28.628Z,15.79
2023-11-18T02:16:32.562Z,15.78
2023-11-18T02:19:36.010Z,15.75
2023-11-18T02:22:38.502Z,15.82
2023-11-18T02:25:46.212Z,15.75
2023-11-18T02:28:48.748Z,15.65
2023-11-18T02:31:53.984Z,15.69
2023-11-18T02:35:17.051Z,15.88
2023-11-18T02:38:21.674Z,15.71
2023-11-18T02:41:25.562Z,15.68
2023-11-18T02:44:29.225Z,15.55
2023-11-18T02:47:31.760Z,15.72
2023-11-18T02:50:36.614Z,15.67
2023-11-18T02:53:39.215Z,15.55
2023-11-18T02:56:41.635Z,15.59
2023-11-18T02:59:44.146Z,15.46
2023-11-18T03:02:48.302Z,15.58
2023-11-18T03:05:51.227Z,15.69
2023-11-18T03:08:54.387Z,15.69
2023-11-18T03:11:56.835Z,15.58
2023-11-18T03:14:59.471Z,15.44
2023-11-18T03:18:01.934Z,15.49
2023-11-18T03:21:04.879Z,15.59
2023-11-18T03:24:07.932Z,15.54
2023-11-18T03:27:10.365Z,15.45
2023-11-18T03:30:13.009Z,15.46
2023-11-18T03:33:15.539Z,15.45
2023-11-18T03:36:19.261Z,15.52
2023-11-18T03:39:22.286Z,15.42
2023-11-18T03:42:24.712Z,15.40
2023-11-18T03:45:27.576Z,15.57
2023-11-18T03:48:29.996Z,15.51
2023-11-18T03:51:32.417Z,15.29
2023-11-18T03:54:34.901Z,15.46
2023-11-18T03:57:37.406Z,15.45
2023-11-18T04:00:39.854Z,15.42
2023-11-18T04:03:43.229Z,15.25
2023-11-18T04:06:47.897Z,15.42
2023-11-18T04:09:50.465Z,15.25
2023-11-18T04:12:52.943Z,15.38
2023-11-18T04:15:55.411Z,15.45
2023-11-18T04:18:57.832Z,15.20
2023-11-18T04:22:00.315Z,15.30
2023-11-18T04:25:02.739Z,15.38
2023-11-18T04:28:05.453Z,15.42
2023-11-18T04:31:08.205Z,15.49
2023-11-18T04:34:10.728Z,15.31
2023-11-18T04:37:13.224Z,15.30
2023-11-18T04:40:16.823Z,15.22
2023-11-18T04:43:25.388Z,15.30
2023-11-18T04:46:33.027Z,15.44
2023-11-18T04:49:36.304Z,15.24
2023-11-18T04:52:38.899Z,15.14
2023-11-18T04:55:41.430Z,15.31
2023-11-18T04:58:43.973Z,15.19
2023-11-18T05:01:46.816Z,15.18
2023-11-18T05:04:50.161Z,15.13
2023-11-18T05:07:52.871Z,15.21
2023-11-18T05:10:55.784Z,15.18
2023-11-18T05:13:58.407Z,15.17
2023-11-18T05:17:00.848Z,15.34
2023-11-18T05:20:04.906Z,15.18
2023-11-18T05:23:07.457Z,15.14
2023-11-18T05:26:10.565Z,15.13
2023-11-18T05:29:17.734Z,15.13
2023-11-18T05:32:21.649Z,15.10
2023-11-18T05:35:29.364Z,15.16
2023-11-18T05:38:35.842Z,15.10
2023-11-18T05:41:40.974Z,15.03
2023-11-18T05:44:43.887Z,15.12
2023-11-18T05:47:46.318Z,15.11
2023-11-18T05:50:49.379Z,15.05
2023-11-18T05:53:53.422Z,15.11
2023-11-18T05:56:58.540Z,15.19
2023-11-18T06:00:01.865Z,15.01
2023-11-18T06:03:04.548Z,15.03
2023-11-18T06:06:08.129Z,15.23
2023-11-18T06:09:19.103Z,14.96
2023-11-18T06:12:21.524Z,15.17
2023-11-18T06:15:23.985Z,14.99
2023-11-18T06:18:26.468Z,15.07
2023-11-18T06:21:32.462Z,15.02
2023-11-18T06:24:34.992Z,14.92
2023-11-18T06:27:37.421Z,14.99
2023-11-18T06:30:40.185Z,15.12
2023-11-18T06:33:46.881Z,14.99
2023-11-18T06:36:49.632Z,15.04
2023-11-18T06:39:52.111Z,15.17
2023-11-18T06:43:02.641Z,14.89
2023-11-18T06:46:05.216Z,14.95
2023-11-18T06:49:08.639Z,14.95
2023-11-18T06:52:13.100Z,15.07
2023-11-18T06:55:16.527Z,15.16
2023-11-18T06:58:19.317Z,14.98
2023-11-18T07:01:22.238Z,15.09
2023-11-18T07:04:24.682Z,15.00
2023-11-18T07:07:27.278Z,15.13
2023-11-18T07:10:29.680Z,15.10
2023-11-18T07:13:32.291Z,14.95
2023-11-18T07:16:34.746Z,14.99
2023-11-18T07:19:37.230Z,15.00
2023-11-18T07:22:40.602Z,15.18
2023-11-18T07:25:44.595Z,14.99
2023-11-18T07:28:47.198Z,15.03
2023-11-18T07:31:50.682Z,15.11
2023-11-18T07:34:53.262Z,15.03
2023-11-18T07:37:55.753Z,15.01
2023-11-18T07:40:58.277Z,15.07
2023-11-18T07:44:01.876Z,15.26
2023-11-18T07:47:06.183Z,15.21
2023-11-18T07:50:13.649Z,15.20
2023-11-18T07:53:17.167Z,15.15
2023-11-18T07:56:19.877Z,15.12
2023-11-18T07:59:23.153Z,15.16
2023-11-18T08:02:26.391Z,15.19
2023-11-18T08:05:29.455Z,15.20
2023-11-18T08:08:31.924Z,15.23
2023-11-18T08:11:34.652Z,15.10
2023-11-18T08:14:37.257Z,15.05
2023-11-18T08:17:39.790Z,15.13
2023-11-18T08:20:42.640Z,15.14
2023-11-18T08:23:45.042Z,15.13
2023-11-18T08:26:48.148Z,15.22
2023-11-18T08:29:50.634Z,15.29
2023-11-18T08:32:53.652Z,15.26
2023-11-18T08:35:56.416Z,15.35
2023-11-18T08:38:58.865Z,15.53
2023-11-18T08:42:01.359Z,15.64
2023-11-18T08:45:05.672Z,15.74
2023-11-18T08:48:09.776Z,15.59
2023-11-18T08:51:14.343Z,15.82
2023-11-18T08:54:23.633Z,15.65
2023-11-18T08:57:26.530Z,15.87
2023-11-18T09:00:49.361Z,15.66
2023-11-18T09:03:54.168Z,15.67
2023-11-18T09:07:01.494Z,15.67
2023-11-18T09:10:04.234Z,15.65
2023-11-18T09:13:06.916Z,15.63
2023-11-18T09:16:10.280Z,15.71
2023-11-18T09:19:12.907Z,15.67
2023-11-18T09:22:15.992Z,15.74
2023-11-18T09:25:18.744Z,15.72
2023-11-18T09:28:22.107Z,15.81
2023-11-18T09:31:24.651Z,15.88
2023-11-18T09:34:34.546Z,15.88
2023-11-18T09:37:37.903Z,16.00
2023-11-18T09:40:44.635Z,16.08
2023-11-18T09:43:48.785Z,16.28
2023-11-18T09:46:58.765Z,16.40
2023-11-18T09:50:04.593Z,16.81
2023-11-18T09:53:12.521Z,17.77
2023-11-18T09:56:27.657Z,18.63
2023-11-18T09:59:36.969Z,19.01
2023-11-18T10:02:42.797Z,19.51
2023-11-18T10:05:46.205Z,19.55
2023-11-18T10:08:49.988Z,19.44
2023-11-18T10:11:56.367Z,19.22
2023-11-18T10:14:59.873Z,18.97
2023-11-18T10:18:11.143Z,18.69
2023-11-18T10:21:19.024Z,18.36
2023-11-18T10:24:21.639Z,18.02
2023-11-18T10:27:30.868Z,17.79
2023-11-18T10:30:34.457Z,17.63
2023-11-18T10:33:43.540Z,17.10
2023-11-18T10:37:07.842Z,17.21
2023-11-18T10:40:14.553Z,17.04
2023-11-18T10:43:18.170Z,17.03
2023-11-18T10:46:22.342Z,16.99
2023-11-18T10:49:25.353Z,16.99
2023-11-18T10:52:31.972Z,16.75
2023-11-18T10:55:41.464Z,16.69
2023-11-18T10:58:44.022Z,16.56
2023-11-18T11:01:50.531Z,16.62
2023-11-18T11:04:54.207Z,16.71
2023-11-18T11:07:57.798Z,16.65
2023-11-18T11:11:01.693Z,16.58
2023-11-18T11:14:05.122Z,16.48
2023-11-18T11:17:12.832Z,16.67
2023-11-18T11:20:25.181Z,16.42
2023-11-18T11:23:51.852Z,16.54
2023-11-18T11:27:30.019Z,16.23
2023-11-18T11:30:52.255Z,16.27
2023-11-18T11:34:00.115Z,16.25
2023-11-18T11:37:04.648Z,16.03
2023-11-18T11:40:12.038Z,16.05
2023-11-18T11:43:22.307Z,16.02
2023-11-18T11:46:26.414Z,15.95
2023-11-18T11:49:36.101Z,15.96
2023-11-18T11:52:43.746Z,15.94
2023-11-18T11:55:52.703Z,16.01
2023-11-18T11:59:01.239Z,15.81
2023-11-18T12:02:09.000Z,15.84
2023-11-18T12:05:20.444Z,15.89
2023-11-18T12:08:26.710Z,15.75
2023-11-18T12:11:34.623Z,15.88
2023-11-18T12:14:52.003Z,15.82
2023-11-18T12:17:58.778Z,15.98
2023-11-18T12:21:05.223Z,15.79
2023-11-18T12:24:20.456Z,15.61
2023-11-18T12:27:41.522Z,15.77
2023-11-18T12:30:58.170Z,15.93
2023-11-18T12:34:06.998Z,15.75
2023-11-18T12:37:48.516Z,15.68
2023-11-18T12:41:08.441Z,15.71
2023-11-18T12:44:20.194Z,15.80
2023-11-18T12:47:24.496Z,15.66
2023-11-18T12:50:29.902Z,15.62
2023-11-18T12:53:32.453Z,15.52
2023-11-18T12:56:35.516Z,15.58
2023-11-18T12:59:41.342Z,15.50
2023-11-18T13:02:43.949Z,15.49
2023-11-18T13:05:46.629Z,15.44
2023-11-18T13:08:50.084Z,15.50
2023-11-18T13:12:03.109Z,15.33
2023-11-18T13:15:09.703Z,15.53
2023-11-18T13:18:13.587Z,15.36
2023-11-18T13:21:17.734Z,15.66
2023-11-18T13:24:20.449Z,15.55
2023-11-18T13:27:24.212Z,15.44
2023-11-18T13:30:26.632Z,15.37
2023-11-18T13:33:29.103Z,15.43
2023-11-18T13:36:33.150Z,15.45
2023-11-18T13:39:35.816Z,15.40
2023-11-18T13:42:40.302Z,15.28
2023-11-18T13:45:44.051Z,15.51
2023-11-18T13:48:52.512Z,15.38
2023-11-18T13:51:57.027Z,15.34
2023-11-18T13:55:01.511Z,15.39
2023-11-18T13:58:06.279Z,15.31
2023-11-18T14:01:09.614Z,15.25
2023-11-18T14:04:12.158Z,15.31
2023-11-18T14:07:18.456Z,15.26
2023-11-18T14:10:21.065Z,15.33
2023-11-18T14:13:23.554Z,15.19
2023-11-18T14:16:27.490Z,15.16
2023-11-18T14:19:32.893Z,15.20
2023-11-18T14:22:36.321Z,15.08
2023-11-18T14:25:39.545Z,15.08
2023-11-18T14:28:43.842Z,15.14
2023-11-18T14:31:46.860Z,15.08
2023-11-18T14:34:50.303Z,15.09
2023-11-18T14:37:54.095Z,15.02
2023-11-18T14:40:56.672Z,14.99
2023-11-18T14:43:59.176Z,15.12
2023-11-18T14:47:01.794Z,14.99
2023-11-18T14:50:06.672Z,15.04
2023-11-18T14:53:09.118Z,15.02
2023-11-18T14:56:11.758Z,14.86
2023-11-18T14:59:14.240Z,14.87
2023-11-18T15:02:16.809Z,14.89
2023-11-18T15:05:20.240Z,15.00
2023-11-18T15:08:23.018Z,14.80
2023-11-18T15:11:25.979Z,14.78
2023-11-18T15:14:29.808Z,14.86
2023-11-18T15:17:43.913Z,14.70
2023-11-18T15:20:50.886Z,14.80
2023-11-18T15:23:53.974Z,14.76
2023-11-18T15:26:56.585Z,14.75
2023-11-18T15:29:59.076Z,14.68
2023-11-18T15:33:02.820Z,14.88
2023-11-18T15:36:08.593Z,14.89
2023-11-18T15:39:11.210Z,14.72
2023-11-18T15:42:14.984Z,14.71
2023-11-18T15:45:19.323Z,14.67
2023-11-18T15:48:21.824Z,14.81
2023-11-18T15:51:26.049Z,14.58
2023-11-18T15:54:28.558Z,14.74
2023-11-18T15:57:31.052Z,14.62
2023-11-18T16:00:33.706Z,14.65
2023-11-18T16:03:36.255Z,14.67
2023-11-18T16:06:38.815Z,14.49
2023-11-18T16:09:41.245Z,14.62
2023-11-18T16:12:43.700Z,14.55
2023-11-18T16:15:46.167Z,14.48
2023-11-18T16:18:48.594Z,14.58
2023-11-18T16:21:52.770Z,14.56
2023-11-18T16:24:55.343Z,14.54
2023-11-18T16:28:00.190Z,14.69
2023-11-18T16:31:02.874Z,14.47
2023-11-18T16:34:07.728Z,14.40
2023-11-18T16:37:10.235Z,14.52
2023-11-18T16:40:17.315Z,14.64
2023-11-18T16:43:19.847Z,14.44
2023-11-18T16:46:22.689Z,14.59
2023-11-18T16:49:25.211Z,14.56
2023-11-18T16:52:27.716Z,14.33
2023-11-18T16:55:32.822Z,14.46
2023-11-18T16:58:36.829Z,14.40
2023-11-18T17:01:39.289Z,14.25
2023-11-18T17:04:41.853Z,14.36
2023-11-18T17:07:44.578Z,14.39
2023-11-18T17:10:54.645Z,14.42
2023-11-18T17:13:57.395Z,14.28
2023-11-18T17:16:59.971Z,14.48
2023-11-18T17:20:02.514Z,14.41
2023-11-18T17:23:05.097Z,14.33
2023-11-18T17:26:09.610Z,14.31
2023-11-18T17:29:14.950Z,14.37
2023-11-18T17:32:17.520Z,14.27
2023-11-18T17:35:21.619Z,14.17
2023-11-18T17:38:24.374Z,14.36
2023-11-18T17:41:26.866Z,14.29
2023-11-18T17:44:29.408Z,14.25
2023-11-18T17:47:35.935Z,14.39
2023-11-18T17:50:38.763Z,14.25
2023-11-18T17:53:41.478Z,14.18
2023-11-18T17:56:44.140Z,14.21
2023-11-18T17:59:46.808Z,14.17
2023-11-18T18:02:50.214Z,14.37
2023-11-18T18:05:52.903Z,14.24
2023-11-18T18:08:56.084Z,14.20
2023-11-18T18:11:58.483Z,14.07
2023-11-18T18:15:01.277Z,14.16
2023-11-18T18:18:04.118Z,14.11
2023-11-18T18:21:08.556Z,14.15
2023-11-18T18:24:12.230Z,14.13
2023-11-18T18:27:14.731Z,13.98
2023-11-18T18:30:17.775Z,14.23
2023-11-18T18:33:20.786Z,14.00
2023-11-18T18:36:23.410Z,14.16
2023-11-18T18:39:26.023Z,14.11
2023-11-18T18:42:28.652Z,14.07
2023-11-18T18:45:32.013Z,14.15
2023-11-18T18:48:34.674Z,14.07
2023-11-18T18:51:37.142Z,14.08
2023-11-18T18:54:39.901Z,13.91
2023-11-18T18:57:43.509Z,13.97
2023-11-18T19:00:45.971Z,13.85
2023-11-18T19:03:48.836Z,14.10
2023-11-18T19:06:51.343Z,13.91
2023-11-18T19:09:53.941Z,14.01
2023-11-18T19:13:01.058Z,14.05
2023-11-18T19:16:04.711Z,13.92
2023-11-18T19:19:07.183Z,13.94
2023-11-18T19:22:10.000Z,13.83
2023-11-18T19:25:16.923Z,13.98
2023-11-18T19:28:19.834Z,13.94
2023-11-18T19:31:22.412Z,13.91
2023-11-18T19:34:26.280Z,13.80
2023-11-18T19:37:28.948Z,13.90
2023-11-18T19:40:33.016Z,13.77
2023-11-18T19:43:35.501Z,13.90
2023-11-18T19:46:38.173Z,13.93
2023-11-18T19:49:42.162Z,13.83
2023-11-18T19:52:44.791Z,13.91
2023-11-18T19:55:47.509Z,13.89
2023-11-18T19:58:50.418Z,13.80
2023-11-18T20:01:55.924Z,13.78
2023-11-18T20:04:59.569Z,13.83
2023-11-18T20:08:02.344Z,13.89
2023-11-18T20:11:08.487Z,13.97
2023-11-18T20:14:11.120Z,13.80
2023-11-18T20:17:14.133Z,13.81
2023-11-18T20:20:18.351Z,13.88
2023-11-18T20:23:21.149Z,13.67
2023-11-18T20:26:23.943Z,13.68
2023-11-18T20:29:26.443Z,13.84
2023-11-18T20:32:29.862Z,13.81
2023-11-18T20:35:32.643Z,13.67
2023-11-18T20:38:35.457Z,13.77
2023-11-18T20:41:38.022Z,13.75
2023-11-18T20:44:40.574Z,13.60
2023-11-18T20:47:43.209Z,13.68
2023-11-18T20:50:52.068Z,13.65
2023-11-18T20:53:54.755Z,13.72
2023-11-18T20:56:57.418Z,13.63
2023-11-18T21:00:00.152Z,13.58
2023-11-18T21:03:03.764Z,13.51
2023-11-18T21:06:07.773Z,13.63
2023-11-18T21:09:10.512Z,13.61
2023-11-18T21:12:18.260Z,13.67
2023-11-18T21:15:21.849Z,13.70
2023-11-18T21:18:24.292Z,13.67
2023-11-18T21:21:26.752Z,13.80
2023-11-18T21:24:29.166Z,13.57
2023-11-18T21:27:31.629Z,13.48
2023-11-18T21:30:34.224Z,13.59
2023-11-18T21:33:38.787Z,13.62
2023-11-18T21:36:41.353Z,13.60
2023-11-18T21:39:43.769Z,13.61
2023-11-18T21:42:47.108Z,13.54
2023-11-18T21:45:49.804Z,13.65
2023-11-18T21:48:52.290Z,13.59
2023-11-18T21:51:54.737Z,13.61
2023-11-18T21:54:57.232Z,13.70
2023-11-18T21:57:59.716Z,13.63
2023-11-18T22:01:02.341Z,13.43
2023-11-18T22:04:05.052Z,13.52
2023-11-18T22:07:07.974Z,13.47
2023-11-18T22:10:17.694Z,13.49
2023-11-18T22:13:20.138Z,13.50
2023-11-18T22:16:22.682Z,13.55
2023-11-18T22:19:27.602Z,13.44
2023-11-18T22:25:35.436Z,13.42
2023-11-18T22:28:39.346Z,13.35
2023-11-18T22:31:41.801Z,13.54
2023-11-18T22:34:44.873Z,13.42
2023-11-18T22:37:48.151Z,13.48
2023-11-18T22:40:50.864Z,13.46
2023-11-18T22:43:54.549Z,13.67
2023-11-18T22:46:57.728Z,13.40
2023-11-18T22:50:01.155Z,13.40
2023-11-18T22:53:05.082Z,13.34
2023-11-18T22:56:08.724Z,13.35
2023-11-18T22:59:11.240Z,13.42
2023-11-18T23:02:15.961Z,13.38
2023-11-18T23:05:18.497Z,13.37
2023-11-18T23:08:23.397Z,13.39
2023-11-18T23:11:26.666Z,13.35
2023-11-18T23:14:29.793Z,13.37
2023-11-18T23:17:35.012Z,13.38
2023-11-18T23:20:37.768Z,13.26
2023-11-18T23:23:40.536Z,13.29
2023-11-18T23:26:43.069Z,13.28
2023-11-18T23:29:45.498Z,13.26
2023-11-18T23:32:53.247Z,13.49
2023-11-18T23:35:55.705Z,13.32
2023-11-18T23:42:03.816Z,13.33
2023-11-18T23:45:08.099Z,13.41
2023-11-18T23:48:11.272Z,13.12
2023-11-18T23:51:13.744Z,13.16
2023-11-18T23:54:16.262Z,13.21
2023-11-18T23:57:18.989Z,13.18
